sensor_id;sensor_type;location;lat;lon;timestamp;P1;durP1;ratioP1;P2;durP2;ratioP2
21492;SDS011;10908;50.690;4.400;2023-06-14T00:00:38;9.35;;;4.65;;
21492;SDS011;10908;50.690;4.400;2023-06-14T00:03:08;9.40;;;4.60;;
21492;SDS011;10908;50.690;4.400;2023-06-14T00:05:35;9.75;;;4.78;;
21492;SDS011;10908;50.690;4.400;2023-06-14T00:08:05;9.07;;;4.63;;
21492;SDS011;10908;50.690;4.400;2023-06-14T00:10:33;8.43;;;4.30;;
21492;SDS011;10908;50.690;4.400;2023-06-14T00:13:00;7.70;;;4.38;;
21492;SDS011;10908;50.690;4.400;2023-06-14T00:15:27;10.70;;;4.68;;
21492;SDS011;10908;50.690;4.400;2023-06-14T00:17:53;7.45;;;5.00;;
21492;SDS011;10908;50.690;4.400;2023-06-14T00:20:20;7.57;;;4.78;;
21492;SDS011;10908;50.690;4.400;2023-06-14T00:22:45;8.85;;;4.55;;
21492;SDS011;10908;50.690;4.400;2023-06-14T00:25:11;8.38;;;4.15;;
21492;SDS011;10908;50.690;4.400;2023-06-14T00:27:37;10.50;;;4.90;;
21492;SDS011;10908;50.690;4.400;2023-06-14T00:30:03;16.17;;;5.28;;
21492;SDS011;10908;50.690;4.400;2023-06-14T00:32:29;7.47;;;4.32;;
21492;SDS011;10908;50.690;4.400;2023-06-14T00:34:54;8.88;;;4.82;;
21492;SDS011;10908;50.690;4.400;2023-06-14T00:37:20;8.85;;;4.60;;
21492;SDS011;10908;50.690;4.400;2023-06-14T00:39:46;11.15;;;4.95;;
21492;SDS011;10908;50.690;4.400;2023-06-14T00:42:22;7.78;;;5.25;;
21492;SDS011;10908;50.690;4.400;2023-06-14T00:44:51;8.40;;;5.20;;
21492;SDS011;10908;50.690;4.400;2023-06-14T00:47:17;8.65;;;4.82;;
21492;SDS011;10908;50.690;4.400;2023-06-14T00:49:45;10.30;;;5.10;;
21492;SDS011;10908;50.690;4.400;2023-06-14T00:52:11;8.75;;;4.60;;
21492;SDS011;10908;50.690;4.400;2023-06-14T00:54:37;11.65;;;4.57;;
21492;SDS011;10908;50.690;4.400;2023-06-14T00:57:04;10.43;;;5.20;;
21492;SDS011;10908;50.690;4.400;2023-06-14T00:59:31;10.20;;;5.07;;
21492;SDS011;10908;50.690;4.400;2023-06-14T01:01:56;8.27;;;4.85;;
21492;SDS011;10908;50.690;4.400;2023-06-14T01:04:22;9.57;;;4.63;;
21492;SDS011;10908;50.690;4.400;2023-06-14T01:09:22;7.65;;;4.93;;
21492;SDS011;10908;50.690;4.400;2023-06-14T01:11:59;9.75;;;4.78;;
21492;SDS011;10908;50.690;4.400;2023-06-14T01:14:29;12.68;;;5.72;;
21492;SDS011;10908;50.690;4.400;2023-06-14T01:16:58;8.52;;;4.72;;
21492;SDS011;10908;50.690;4.400;2023-06-14T01:19:25;8.88;;;5.20;;
21492;SDS011;10908;50.690;4.400;2023-06-14T01:21:53;9.80;;;4.90;;
21492;SDS011;10908;50.690;4.400;2023-06-14T01:24:20;8.57;;;5.60;;
21492;SDS011;10908;50.690;4.400;2023-06-14T01:26:51;10.38;;;5.20;;
21492;SDS011;10908;50.690;4.400;2023-06-14T01:29:22;10.40;;;5.38;;
21492;SDS011;10908;50.690;4.400;2023-06-14T01:31:50;8.05;;;4.78;;
21492;SDS011;10908;50.690;4.400;2023-06-14T01:34:16;8.50;;;5.10;;
21492;SDS011;10908;50.690;4.400;2023-06-14T01:36:42;9.32;;;4.90;;
21492;SDS011;10908;50.690;4.400;2023-06-14T01:39:10;12.38;;;5.25;;
21492;SDS011;10908;50.690;4.400;2023-06-14T01:41:39;10.38;;;5.00;;
21492;SDS011;10908;50.690;4.400;2023-06-14T01:44:06;11.88;;;5.88;;
21492;SDS011;10908;50.690;4.400;2023-06-14T01:46:32;9.65;;;5.10;;
21492;SDS011;10908;50.690;4.400;2023-06-14T01:48:58;9.90;;;5.20;;
21492;SDS011;10908;50.690;4.400;2023-06-14T01:51:25;10.73;;;5.28;;
21492;SDS011;10908;50.690;4.400;2023-06-14T01:53:50;11.90;;;4.78;;
21492;SDS011;10908;50.690;4.400;2023-06-14T01:56:16;10.68;;;5.28;;
21492;SDS011;10908;50.690;4.400;2023-06-14T01:58:42;9.02;;;5.13;;
21492;SDS011;10908;50.690;4.400;2023-06-14T02:01:08;8.27;;;5.30;;
21492;SDS011;10908;50.690;4.400;2023-06-14T02:03:34;11.13;;;5.93;;
21492;SDS011;10908;50.690;4.400;2023-06-14T02:05:59;7.90;;;4.85;;
21492;SDS011;10908;50.690;4.400;2023-06-14T02:08:25;10.13;;;5.20;;
21492;SDS011;10908;50.690;4.400;2023-06-14T02:10:51;8.55;;;5.20;;
21492;SDS011;10908;50.690;4.400;2023-06-14T02:13:17;8.38;;;5.20;;
21492;SDS011;10908;50.690;4.400;2023-06-14T02:15:43;12.25;;;5.35;;
21492;SDS011;10908;50.690;4.400;2023-06-14T02:18:10;8.00;;;5.20;;
21492;SDS011;10908;50.690;4.400;2023-06-14T02:20:36;8.90;;;5.50;;
21492;SDS011;10908;50.690;4.400;2023-06-14T02:23:01;9.73;;;4.90;;
21492;SDS011;10908;50.690;4.400;2023-06-14T02:25:27;9.82;;;5.40;;
21492;SDS011;10908;50.690;4.400;2023-06-14T02:27:53;9.95;;;5.60;;
21492;SDS011;10908;50.690;4.400;2023-06-14T02:30:20;9.00;;;5.50;;
21492;SDS011;10908;50.690;4.400;2023-06-14T02:32:45;10.32;;;5.55;;
21492;SDS011;10908;50.690;4.400;2023-06-14T02:35:13;9.02;;;5.30;;
21492;SDS011;10908;50.690;4.400;2023-06-14T02:37:39;10.55;;;5.75;;
21492;SDS011;10908;50.690;4.400;2023-06-14T02:40:05;9.30;;;5.55;;
21492;SDS011;10908;50.690;4.400;2023-06-14T02:42:31;7.95;;;5.13;;
21492;SDS011;10908;50.690;4.400;2023-06-14T02:44:57;8.52;;;5.20;;
21492;SDS011;10908;50.690;4.400;2023-06-14T02:47:22;8.32;;;5.38;;
21492;SDS011;10908;50.690;4.400;2023-06-14T02:49:49;9.60;;;5.55;;
21492;SDS011;10908;50.690;4.400;2023-06-14T02:52:15;10.60;;;5.60;;
21492;SDS011;10908;50.690;4.400;2023-06-14T02:54:41;8.55;;;5.38;;
21492;SDS011;10908;50.690;4.400;2023-06-14T02:57:07;9.20;;;5.45;;
21492;SDS011;10908;50.690;4.400;2023-06-14T02:59:33;10.52;;;6.00;;
21492;SDS011;10908;50.690;4.400;2023-06-14T03:01:59;8.93;;;5.40;;
21492;SDS011;10908;50.690;4.400;2023-06-14T03:04:25;9.25;;;5.68;;
21492;SDS011;10908;50.690;4.400;2023-06-14T03:06:51;11.13;;;5.78;;
21492;SDS011;10908;50.690;4.400;2023-06-14T03:09:18;9.65;;;5.57;;
21492;SDS011;10908;50.690;4.400;2023-06-14T03:11:44;12.45;;;5.88;;
21492;SDS011;10908;50.690;4.400;2023-06-14T03:14:10;9.73;;;5.68;;
21492;SDS011;10908;50.690;4.400;2023-06-14T03:16:36;11.50;;;6.00;;
21492;SDS011;10908;50.690;4.400;2023-06-14T03:19:02;9.45;;;6.05;;
21492;SDS011;10908;50.690;4.400;2023-06-14T03:21:28;9.75;;;5.22;;
21492;SDS011;10908;50.690;4.400;2023-06-14T03:23:53;9.05;;;5.68;;
21492;SDS011;10908;50.690;4.400;2023-06-14T03:26:19;12.43;;;5.85;;
21492;SDS011;10908;50.690;4.400;2023-06-14T03:28:45;12.95;;;6.25;;
21492;SDS011;10908;50.690;4.400;2023-06-14T03:31:12;11.30;;;5.97;;
21492;SDS011;10908;50.690;4.400;2023-06-14T03:33:38;9.93;;;5.55;;
21492;SDS011;10908;50.690;4.400;2023-06-14T03:36:04;9.70;;;6.05;;
21492;SDS011;10908;50.690;4.400;2023-06-14T03:38:31;10.95;;;5.93;;
21492;SDS011;10908;50.690;4.400;2023-06-14T03:40:57;11.02;;;5.85;;
21492;SDS011;10908;50.690;4.400;2023-06-14T03:43:23;13.23;;;6.45;;
21492;SDS011;10908;50.690;4.400;2023-06-14T03:45:49;12.35;;;6.10;;
21492;SDS011;10908;50.690;4.400;2023-06-14T03:48:14;13.70;;;6.63;;
21492;SDS011;10908;50.690;4.400;2023-06-14T03:50:40;11.45;;;6.38;;
21492;SDS011;10908;50.690;4.400;2023-06-14T03:53:07;11.02;;;5.97;;
21492;SDS011;10908;50.690;4.400;2023-06-14T03:55:33;11.63;;;6.50;;
21492;SDS011;10908;50.690;4.400;2023-06-14T03:57:59;11.27;;;6.53;;
21492;SDS011;10908;50.690;4.400;2023-06-14T04:00:25;14.23;;;6.63;;
21492;SDS011;10908;50.690;4.400;2023-06-14T04:02:51;14.52;;;6.75;;
21492;SDS011;10908;50.690;4.400;2023-06-14T04:05:17;11.63;;;6.75;;
21492;SDS011;10908;50.690;4.400;2023-06-14T04:07:44;12.90;;;6.70;;
21492;SDS011;10908;50.690;4.400;2023-06-14T04:10:11;13.80;;;6.53;;
21492;SDS011;10908;50.690;4.400;2023-06-14T04:12:38;11.75;;;6.50;;
21492;SDS011;10908;50.690;4.400;2023-06-14T04:15:04;10.25;;;6.28;;
21492;SDS011;10908;50.690;4.400;2023-06-14T04:17:31;12.13;;;6.45;;
21492;SDS011;10908;50.690;4.400;2023-06-14T04:19:58;12.15;;;7.45;;
21492;SDS011;10908;50.690;4.400;2023-06-14T04:22:25;11.05;;;6.53;;
21492;SDS011;10908;50.690;4.400;2023-06-14T04:24:54;11.65;;;6.80;;
21492;SDS011;10908;50.690;4.400;2023-06-14T04:27:21;11.35;;;6.30;;
21492;SDS011;10908;50.690;4.400;2023-06-14T04:29:50;11.05;;;6.47;;
21492;SDS011;10908;50.690;4.400;2023-06-14T04:32:21;11.82;;;6.70;;
21492;SDS011;10908;50.690;4.400;2023-06-14T04:34:54;12.27;;;6.38;;
21492;SDS011;10908;50.690;4.400;2023-06-14T04:37:21;12.38;;;7.25;;
21492;SDS011;10908;50.690;4.400;2023-06-14T04:39:47;12.05;;;6.90;;
21492;SDS011;10908;50.690;4.400;2023-06-14T04:42:14;15.23;;;7.00;;
21492;SDS011;10908;50.690;4.400;2023-06-14T04:44:41;12.38;;;6.43;;
21492;SDS011;10908;50.690;4.400;2023-06-14T04:47:08;9.55;;;6.47;;
21492;SDS011;10908;50.690;4.400;2023-06-14T04:49:34;14.25;;;6.70;;
21492;SDS011;10908;50.690;4.400;2023-06-14T04:52:00;14.95;;;6.90;;
21492;SDS011;10908;50.690;4.400;2023-06-14T04:54:26;12.68;;;6.97;;
21492;SDS011;10908;50.690;4.400;2023-06-14T04:56:52;13.55;;;6.78;;
21492;SDS011;10908;50.690;4.400;2023-06-14T04:59:20;14.23;;;7.05;;
21492;SDS011;10908;50.690;4.400;2023-06-14T05:01:48;10.98;;;7.00;;
21492;SDS011;10908;50.690;4.400;2023-06-14T05:04:14;10.63;;;7.03;;
21492;SDS011;10908;50.690;4.400;2023-06-14T05:06:44;11.07;;;6.78;;
21492;SDS011;10908;50.690;4.400;2023-06-14T05:09:10;10.27;;;6.85;;
21492;SDS011;10908;50.690;4.400;2023-06-14T05:11:37;12.73;;;6.65;;
21492;SDS011;10908;50.690;4.400;2023-06-14T05:14:03;10.57;;;7.03;;
21492;SDS011;10908;50.690;4.400;2023-06-14T05:16:29;13.15;;;7.22;;
21492;SDS011;10908;50.690;4.400;2023-06-14T05:18:55;11.82;;;7.00;;
21492;SDS011;10908;50.690;4.400;2023-06-14T05:21:20;11.93;;;7.50;;
21492;SDS011;10908;50.690;4.400;2023-06-14T05:23:46;16.40;;;7.75;;
21492;SDS011;10908;50.690;4.400;2023-06-14T05:26:12;11.35;;;7.00;;
21492;SDS011;10908;50.690;4.400;2023-06-14T05:28:38;11.70;;;7.53;;
21492;SDS011;10908;50.690;4.400;2023-06-14T05:31:03;15.18;;;7.10;;
21492;SDS011;10908;50.690;4.400;2023-06-14T05:33:29;13.77;;;7.57;;
21492;SDS011;10908;50.690;4.400;2023-06-14T05:35:54;11.77;;;7.03;;
21492;SDS011;10908;50.690;4.400;2023-06-14T05:38:20;9.93;;;6.95;;
21492;SDS011;10908;50.690;4.400;2023-06-14T05:40:46;10.30;;;7.28;;
21492;SDS011;10908;50.690;4.400;2023-06-14T05:43:12;11.90;;;7.13;;
21492;SDS011;10908;50.690;4.400;2023-06-14T05:45:37;11.68;;;7.07;;
21492;SDS011;10908;50.690;4.400;2023-06-14T05:48:03;11.88;;;7.10;;
21492;SDS011;10908;50.690;4.400;2023-06-14T05:50:29;12.90;;;7.05;;
21492;SDS011;10908;50.690;4.400;2023-06-14T05:52:55;16.13;;;7.60;;
21492;SDS011;10908;50.690;4.400;2023-06-14T05:55:21;11.85;;;7.43;;
21492;SDS011;10908;50.690;4.400;2023-06-14T05:57:46;13.55;;;7.60;;
21492;SDS011;10908;50.690;4.400;2023-06-14T06:00:13;13.98;;;7.63;;
21492;SDS011;10908;50.690;4.400;2023-06-14T06:02:44;13.65;;;7.88;;
21492;SDS011;10908;50.690;4.400;2023-06-14T06:05:10;12.50;;;6.82;;
21492;SDS011;10908;50.690;4.400;2023-06-14T06:07:36;13.48;;;7.05;;
21492;SDS011;10908;50.690;4.400;2023-06-14T06:10:03;10.90;;;6.65;;
21492;SDS011;10908;50.690;4.400;2023-06-14T06:12:30;13.38;;;7.13;;
21492;SDS011;10908;50.690;4.400;2023-06-14T06:14:56;11.82;;;6.50;;
21492;SDS011;10908;50.690;4.400;2023-06-14T06:17:22;14.27;;;7.13;;
21492;SDS011;10908;50.690;4.400;2023-06-14T06:19:47;12.55;;;6.72;;
21492;SDS011;10908;50.690;4.400;2023-06-14T06:22:13;12.63;;;6.80;;
21492;SDS011;10908;50.690;4.400;2023-06-14T06:24:39;11.20;;;6.70;;
21492;SDS011;10908;50.690;4.400;2023-06-14T06:27:04;12.68;;;7.13;;
21492;SDS011;10908;50.690;4.400;2023-06-14T06:29:32;16.00;;;6.80;;
21492;SDS011;10908;50.690;4.400;2023-06-14T06:31:58;15.77;;;6.63;;
21492;SDS011;10908;50.690;4.400;2023-06-14T06:34:23;10.18;;;6.47;;
21492;SDS011;10908;50.690;4.400;2023-06-14T06:36:49;13.02;;;6.95;;
21492;SDS011;10908;50.690;4.400;2023-06-14T06:39:15;16.05;;;6.80;;
21492;SDS011;10908;50.690;4.400;2023-06-14T06:41:40;12.35;;;6.93;;
21492;SDS011;10908;50.690;4.400;2023-06-14T06:44:06;15.82;;;6.90;;
21492;SDS011;10908;50.690;4.400;2023-06-14T06:46:32;11.02;;;6.65;;
21492;SDS011;10908;50.690;4.400;2023-06-14T06:48:59;12.02;;;6.50;;
21492;SDS011;10908;50.690;4.400;2023-06-14T06:51:25;14.23;;;6.70;;
21492;SDS011;10908;50.690;4.400;2023-06-14T06:53:54;12.35;;;6.80;;
21492;SDS011;10908;50.690;4.400;2023-06-14T06:56:20;10.98;;;6.50;;
21492;SDS011;10908;50.690;4.400;2023-06-14T06:58:51;14.82;;;7.03;;
21492;SDS011;10908;50.690;4.400;2023-06-14T07:01:17;13.88;;;6.35;;
21492;SDS011;10908;50.690;4.400;2023-06-14T07:03:43;11.50;;;6.50;;
21492;SDS011;10908;50.690;4.400;2023-06-14T07:06:09;14.85;;;7.10;;
21492;SDS011;10908;50.690;4.400;2023-06-14T07:08:35;11.65;;;7.00;;
21492;SDS011;10908;50.690;4.400;2023-06-14T07:11:03;12.38;;;6.50;;
21492;SDS011;10908;50.690;4.400;2023-06-14T07:13:29;11.48;;;7.05;;
21492;SDS011;10908;50.690;4.400;2023-06-14T07:15:57;12.50;;;7.38;;
21492;SDS011;10908;50.690;4.400;2023-06-14T07:18:23;11.95;;;6.50;;
21492;SDS011;10908;50.690;4.400;2023-06-14T07:20:49;13.65;;;6.63;;
21492;SDS011;10908;50.690;4.400;2023-06-14T07:23:15;11.20;;;6.97;;
21492;SDS011;10908;50.690;4.400;2023-06-14T07:25:41;13.13;;;6.53;;
21492;SDS011;10908;50.690;4.400;2023-06-14T07:28:07;14.98;;;6.85;;
21492;SDS011;10908;50.690;4.400;2023-06-14T07:30:32;13.38;;;6.65;;
21492;SDS011;10908;50.690;4.400;2023-06-14T07:32:58;12.05;;;6.63;;
21492;SDS011;10908;50.690;4.400;2023-06-14T07:35:23;13.25;;;6.53;;
21492;SDS011;10908;50.690;4.400;2023-06-14T07:37:49;10.10;;;6.07;;
21492;SDS011;10908;50.690;4.400;2023-06-14T07:40:15;14.80;;;7.70;;
21492;SDS011;10908;50.690;4.400;2023-06-14T07:42:41;10.30;;;7.07;;
21492;SDS011;10908;50.690;4.400;2023-06-14T07:45:07;15.85;;;6.35;;
21492;SDS011;10908;50.690;4.400;2023-06-14T07:47:33;15.15;;;6.53;;
21492;SDS011;10908;50.690;4.400;2023-06-14T07:49:59;13.23;;;6.60;;
21492;SDS011;10908;50.690;4.400;2023-06-14T07:52:24;13.15;;;5.82;;
21492;SDS011;10908;50.690;4.400;2023-06-14T07:54:50;14.13;;;6.20;;
21492;SDS011;10908;50.690;4.400;2023-06-14T07:57:16;11.63;;;5.82;;
21492;SDS011;10908;50.690;4.400;2023-06-14T07:59:45;10.05;;;5.60;;
21492;SDS011;10908;50.690;4.400;2023-06-14T08:02:10;13.05;;;5.63;;
21492;SDS011;10908;50.690;4.400;2023-06-14T08:04:36;12.35;;;6.32;;
21492;SDS011;10908;50.690;4.400;2023-06-14T08:07:02;11.60;;;6.25;;
21492;SDS011;10908;50.690;4.400;2023-06-14T08:09:27;17.58;;;6.00;;
21492;SDS011;10908;50.690;4.400;2023-06-14T08:11:54;12.07;;;5.97;;
21492;SDS011;10908;50.690;4.400;2023-06-14T08:14:20;15.13;;;5.93;;
21492;SDS011;10908;50.690;4.400;2023-06-14T08:16:46;12.73;;;5.82;;
21492;SDS011;10908;50.690;4.400;2023-06-14T08:19:12;10.25;;;6.07;;
21492;SDS011;10908;50.690;4.400;2023-06-14T08:21:37;14.38;;;5.78;;
21492;SDS011;10908;50.690;4.400;2023-06-14T08:24:03;15.05;;;5.93;;
21492;SDS011;10908;50.690;4.400;2023-06-14T08:26:29;8.27;;;5.75;;
21492;SDS011;10908;50.690;4.400;2023-06-14T08:28:57;11.27;;;5.72;;
21492;SDS011;10908;50.690;4.400;2023-06-14T08:31:23;13.27;;;5.38;;
21492;SDS011;10908;50.690;4.400;2023-06-14T08:33:50;10.77;;;5.30;;
21492;SDS011;10908;50.690;4.400;2023-06-14T08:36:16;13.07;;;5.60;;
21492;SDS011;10908;50.690;4.400;2023-06-14T08:38:41;13.55;;;5.35;;
21492;SDS011;10908;50.690;4.400;2023-06-14T08:41:07;11.10;;;4.63;;
21492;SDS011;10908;50.690;4.400;2023-06-14T08:43:36;13.98;;;5.30;;
21492;SDS011;10908;50.690;4.400;2023-06-14T08:46:03;8.63;;;4.80;;
21492;SDS011;10908;50.690;4.400;2023-06-14T08:48:31;11.13;;;5.00;;
21492;SDS011;10908;50.690;4.400;2023-06-14T08:51:01;12.07;;;5.03;;
21492;SDS011;10908;50.690;4.400;2023-06-14T08:53:29;12.27;;;4.95;;
21492;SDS011;10908;50.690;4.400;2023-06-14T08:55:59;12.23;;;5.03;;
21492;SDS011;10908;50.690;4.400;2023-06-14T08:58:27;9.82;;;5.20;;
21492;SDS011;10908;50.690;4.400;2023-06-14T09:00:56;8.90;;;4.93;;
21492;SDS011;10908;50.690;4.400;2023-06-14T09:03:23;11.05;;;5.05;;
21492;SDS011;10908;50.690;4.400;2023-06-14T09:05:56;8.70;;;4.60;;
21492;SDS011;10908;50.690;4.400;2023-06-14T09:08:24;13.18;;;4.90;;
21492;SDS011;10908;50.690;4.400;2023-06-14T09:10:51;11.35;;;5.10;;
21492;SDS011;10908;50.690;4.400;2023-06-14T09:13:17;9.55;;;5.72;;
21492;SDS011;10908;50.690;4.400;2023-06-14T09:15:43;9.82;;;5.47;;
21492;SDS011;10908;50.690;4.400;2023-06-14T09:18:08;14.15;;;5.57;;
21492;SDS011;10908;50.690;4.400;2023-06-14T09:20:35;9.55;;;5.13;;
21492;SDS011;10908;50.690;4.400;2023-06-14T09:23:00;8.25;;;5.22;;
21492;SDS011;10908;50.690;4.400;2023-06-14T09:25:27;10.43;;;5.30;;
21492;SDS011;10908;50.690;4.400;2023-06-14T09:27:53;10.32;;;5.78;;
21492;SDS011;10908;50.690;4.400;2023-06-14T09:30:19;7.65;;;5.07;;
21492;SDS011;10908;50.690;4.400;2023-06-14T09:32:45;10.20;;;5.10;;
21492;SDS011;10908;50.690;4.400;2023-06-14T09:35:11;10.65;;;5.40;;
21492;SDS011;10908;50.690;4.400;2023-06-14T09:37:37;13.30;;;5.70;;
21492;SDS011;10908;50.690;4.400;2023-06-14T09:40:03;13.27;;;5.78;;
21492;SDS011;10908;50.690;4.400;2023-06-14T09:42:30;17.38;;;5.25;;
21492;SDS011;10908;50.690;4.400;2023-06-14T09:44:56;10.55;;;5.30;;
21492;SDS011;10908;50.690;4.400;2023-06-14T09:47:22;10.90;;;5.47;;
21492;SDS011;10908;50.690;4.400;2023-06-14T09:49:50;12.98;;;5.68;;
21492;SDS011;10908;50.690;4.400;2023-06-14T09:52:19;16.15;;;5.78;;
21492;SDS011;10908;50.690;4.400;2023-06-14T09:54:47;9.75;;;5.38;;
21492;SDS011;10908;50.690;4.400;2023-06-14T09:57:20;9.43;;;4.63;;
21492;SDS011;10908;50.690;4.400;2023-06-14T09:59:47;11.57;;;5.30;;
21492;SDS011;10908;50.690;4.400;2023-06-14T10:02:29;11.63;;;4.93;;
21492;SDS011;10908;50.690;4.400;2023-06-14T10:05:08;8.70;;;4.40;;
21492;SDS011;10908;50.690;4.400;2023-06-14T10:07:58;10.35;;;4.43;;
21492;SDS011;10908;50.690;4.400;2023-06-14T10:10:28;7.45;;;4.47;;
21492;SDS011;10908;50.690;4.400;2023-06-14T10:12:53;13.05;;;4.70;;
21492;SDS011;10908;50.690;4.400;2023-06-14T10:16:04;10.80;;;5.15;;
21492;SDS011;10908;50.690;4.400;2023-06-14T10:21:15;9.07;;;4.30;;
21492;SDS011;10908;50.690;4.400;2023-06-14T10:23:57;8.35;;;4.50;;
21492;SDS011;10908;50.690;4.400;2023-06-14T10:26:26;8.27;;;4.20;;
21492;SDS011;10908;50.690;4.400;2023-06-14T10:28:59;12.27;;;5.28;;
21492;SDS011;10908;50.690;4.400;2023-06-14T10:34:21;9.07;;;4.85;;
21492;SDS011;10908;50.690;4.400;2023-06-14T10:39:27;13.20;;;5.07;;
21492;SDS011;10908;50.690;4.400;2023-06-14T10:41:54;7.97;;;4.65;;
21492;SDS011;10908;50.690;4.400;2023-06-14T10:46:47;9.52;;;4.63;;
21492;SDS011;10908;50.690;4.400;2023-06-14T10:49:16;7.45;;;4.50;;
21492;SDS011;10908;50.690;4.400;2023-06-14T10:51:46;9.93;;;4.97;;
21492;SDS011;10908;50.690;4.400;2023-06-14T10:54:16;13.50;;;4.57;;
21492;SDS011;10908;50.690;4.400;2023-06-14T10:56:47;11.05;;;4.72;;
21492;SDS011;10908;50.690;4.400;2023-06-14T10:59:18;8.25;;;4.60;;
21492;SDS011;10908;50.690;4.400;2023-06-14T11:04:27;9.05;;;4.43;;
21492;SDS011;10908;50.690;4.400;2023-06-14T11:12:48;6.78;;;4.32;;
21492;SDS011;10908;50.690;4.400;2023-06-14T11:15:15;7.85;;;4.32;;
21492;SDS011;10908;50.690;4.400;2023-06-14T11:17:50;10.75;;;4.72;;
21492;SDS011;10908;50.690;4.400;2023-06-14T11:20:18;9.55;;;4.82;;
21492;SDS011;10908;50.690;4.400;2023-06-14T11:22:44;9.90;;;4.95;;
21492;SDS011;10908;50.690;4.400;2023-06-14T11:25:14;11.95;;;4.75;;
21492;SDS011;10908;50.690;4.400;2023-06-14T11:27:43;9.52;;;4.80;;
21492;SDS011;10908;50.690;4.400;2023-06-14T11:30:09;8.73;;;4.70;;
21492;SDS011;10908;50.690;4.400;2023-06-14T11:32:35;9.05;;;4.25;;
21492;SDS011;10908;50.690;4.400;2023-06-14T11:35:02;9.85;;;4.15;;
21492;SDS011;10908;50.690;4.400;2023-06-14T11:37:29;11.63;;;4.50;;
21492;SDS011;10908;50.690;4.400;2023-06-14T11:39:57;14.10;;;4.40;;
21492;SDS011;10908;50.690;4.400;2023-06-14T11:42:24;13.93;;;4.82;;
21492;SDS011;10908;50.690;4.400;2023-06-14T11:44:52;10.43;;;4.50;;
21492;SDS011;10908;50.690;4.400;2023-06-14T11:47:18;8.82;;;4.30;;
21492;SDS011;10908;50.690;4.400;2023-06-14T11:49:44;6.45;;;4.03;;
21492;SDS011;10908;50.690;4.400;2023-06-14T11:52:11;11.50;;;4.93;;
21492;SDS011;10908;50.690;4.400;2023-06-14T11:54:37;10.13;;;4.10;;
21492;SDS011;10908;50.690;4.400;2023-06-14T11:57:05;8.43;;;4.30;;
21492;SDS011;10908;50.690;4.400;2023-06-14T11:59:32;8.45;;;4.20;;
21492;SDS011;10908;50.690;4.400;2023-06-14T12:02:09;7.68;;;3.92;;
21492;SDS011;10908;50.690;4.400;2023-06-14T12:04:35;7.13;;;3.80;;
21492;SDS011;10908;50.690;4.400;2023-06-14T12:07:13;8.82;;;4.00;;
21492;SDS011;10908;50.690;4.400;2023-06-14T12:09:46;10.10;;;4.70;;
21492;SDS011;10908;50.690;4.400;2023-06-14T12:12:26;10.23;;;4.18;;
21492;SDS011;10908;50.690;4.400;2023-06-14T12:14:52;8.30;;;4.00;;
21492;SDS011;10908;50.690;4.400;2023-06-14T12:17:19;9.55;;;3.95;;
21492;SDS011;10908;50.690;4.400;2023-06-14T12:19:45;9.32;;;3.83;;
21492;SDS011;10908;50.690;4.400;2023-06-14T12:22:12;9.82;;;4.15;;
21492;SDS011;10908;50.690;4.400;2023-06-14T12:24:38;7.85;;;3.60;;
21492;SDS011;10908;50.690;4.400;2023-06-14T12:27:04;9.30;;;4.10;;
21492;SDS011;10908;50.690;4.400;2023-06-14T12:29:30;11.30;;;4.15;;
21492;SDS011;10908;50.690;4.400;2023-06-14T12:31:56;8.90;;;3.80;;
21492;SDS011;10908;50.690;4.400;2023-06-14T12:34:25;6.90;;;4.05;;
21492;SDS011;10908;50.690;4.400;2023-06-14T12:36:52;9.25;;;3.92;;
21492;SDS011;10908;50.690;4.400;2023-06-14T12:39:19;10.32;;;3.70;;
21492;SDS011;10908;50.690;4.400;2023-06-14T12:41:45;7.45;;;4.00;;
21492;SDS011;10908;50.690;4.400;2023-06-14T12:44:12;13.40;;;3.85;;
21492;SDS011;10908;50.690;4.400;2023-06-14T12:46:38;6.65;;;3.75;;
21492;SDS011;10908;50.690;4.400;2023-06-14T12:49:05;9.48;;;3.85;;
21492;SDS011;10908;50.690;4.400;2023-06-14T12:51:32;11.00;;;3.90;;
21492;SDS011;10908;50.690;4.400;2023-06-14T12:53:58;11.02;;;3.75;;
21492;SDS011;10908;50.690;4.400;2023-06-14T12:56:24;7.85;;;3.67;;
21492;SDS011;10908;50.690;4.400;2023-06-14T12:58:49;9.80;;;3.55;;
21492;SDS011;10908;50.690;4.400;2023-06-14T13:01:15;8.90;;;3.83;;
21492;SDS011;10908;50.690;4.400;2023-06-14T13:03:41;7.38;;;3.90;;
21492;SDS011;10908;50.690;4.400;2023-06-14T13:06:06;9.07;;;3.70;;
21492;SDS011;10908;50.690;4.400;2023-06-14T13:08:32;8.80;;;3.30;;
21492;SDS011;10908;50.690;4.400;2023-06-14T13:10:58;10.75;;;3.72;;
21492;SDS011;10908;50.690;4.400;2023-06-14T13:13:24;6.32;;;3.65;;
21492;SDS011;10908;50.690;4.400;2023-06-14T13:15:49;7.82;;;3.70;;
21492;SDS011;10908;50.690;4.400;2023-06-14T13:18:15;6.43;;;3.40;;
21492;SDS011;10908;50.690;4.400;2023-06-14T13:20:41;10.15;;;4.00;;
21492;SDS011;10908;50.690;4.400;2023-06-14T13:23:08;8.23;;;3.78;;
21492;SDS011;10908;50.690;4.400;2023-06-14T13:25:35;7.93;;;3.40;;
21492;SDS011;10908;50.690;4.400;2023-06-14T13:28:03;8.77;;;3.40;;
21492;SDS011;10908;50.690;4.400;2023-06-14T13:30:30;10.68;;;3.55;;
21492;SDS011;10908;50.690;4.400;2023-06-14T13:32:56;14.93;;;4.38;;
21492;SDS011;10908;50.690;4.400;2023-06-14T13:35:23;9.23;;;3.35;;
21492;SDS011;10908;50.690;4.400;2023-06-14T13:37:49;6.68;;;3.67;;
21492;SDS011;10908;50.690;4.400;2023-06-14T13:40:15;8.23;;;3.58;;
21492;SDS011;10908;50.690;4.400;2023-06-14T13:42:41;11.27;;;3.92;;
21492;SDS011;10908;50.690;4.400;2023-06-14T13:45:09;10.80;;;3.15;;
21492;SDS011;10908;50.690;4.400;2023-06-14T13:47:39;9.60;;;3.65;;
21492;SDS011;10908;50.690;4.400;2023-06-14T13:50:09;8.35;;;3.22;;
21492;SDS011;10908;50.690;4.400;2023-06-14T13:52:38;8.50;;;3.20;;
21492;SDS011;10908;50.690;4.400;2023-06-14T13:55:04;9.95;;;3.10;;
21492;SDS011;10908;50.690;4.400;2023-06-14T13:57:31;9.10;;;3.28;;
21492;SDS011;10908;50.690;4.400;2023-06-14T13:59:59;6.30;;;3.00;;
21492;SDS011;10908;50.690;4.400;2023-06-14T14:02:30;8.25;;;2.80;;
21492;SDS011;10908;50.690;4.400;2023-06-14T14:04:55;6.50;;;3.03;;
21492;SDS011;10908;50.690;4.400;2023-06-14T14:07:22;5.85;;;2.50;;
21492;SDS011;10908;50.690;4.400;2023-06-14T14:09:48;6.95;;;2.65;;
21492;SDS011;10908;50.690;4.400;2023-06-14T14:12:14;6.10;;;2.70;;
21492;SDS011;10908;50.690;4.400;2023-06-14T14:14:40;5.50;;;2.55;;
21492;SDS011;10908;50.690;4.400;2023-06-14T14:17:08;10.60;;;2.80;;
21492;SDS011;10908;50.690;4.400;2023-06-14T14:19:34;10.35;;;2.60;;
21492;SDS011;10908;50.690;4.400;2023-06-14T14:21:59;6.60;;;2.70;;
21492;SDS011;10908;50.690;4.400;2023-06-14T14:24:26;10.98;;;2.50;;
21492;SDS011;10908;50.690;4.400;2023-06-14T14:26:51;7.95;;;2.60;;
21492;SDS011;10908;50.690;4.400;2023-06-14T14:29:18;9.43;;;2.60;;
21492;SDS011;10908;50.690;4.400;2023-06-14T14:31:44;9.85;;;2.38;;
21492;SDS011;10908;50.690;4.400;2023-06-14T14:34:10;6.20;;;2.00;;
21492;SDS011;10908;50.690;4.400;2023-06-14T14:36:36;7.55;;;2.50;;
21492;SDS011;10908;50.690;4.400;2023-06-14T14:39:06;6.47;;;1.95;;
21492;SDS011;10908;50.690;4.400;2023-06-14T14:41:32;5.95;;;2.00;;
21492;SDS011;10908;50.690;4.400;2023-06-14T14:43:57;5.20;;;1.88;;
21492;SDS011;10908;50.690;4.400;2023-06-14T14:46:24;7.70;;;2.10;;
21492;SDS011;10908;50.690;4.400;2023-06-14T14:48:50;5.40;;;1.90;;
21492;SDS011;10908;50.690;4.400;2023-06-14T14:51:15;5.13;;;1.65;;
21492;SDS011;10908;50.690;4.400;2023-06-14T14:53:41;5.45;;;1.70;;
21492;SDS011;10908;50.690;4.400;2023-06-14T14:56:07;4.55;;;1.60;;
21492;SDS011;10908;50.690;4.400;2023-06-14T14:58:32;8.93;;;1.80;;
21492;SDS011;10908;50.690;4.400;2023-06-14T15:00:58;8.25;;;1.80;;